Time;durP1;ratioP1;P1;durP2;ratioP2;P2;SDS_P1;SDS_P2;PMS_P1;PMS_P2;Temp;Humidity;BMP_temperature;BMP_pressure;BME280_temperature;BME280_humidity;BME280_pressure;Samples;Min_cycle;Max_cycle;Signal;HPM_P1;HPM_P2
2024/02/18 00:02:12;;;;;;;33.67;18.02;;;12.10;71.60;;;7.54;100.00;97020.19;4954882;28;20474;-54
2024/02/18 00:04:38;;;;;;;38.00;18.80;;;12.10;71.50;;;7.47;100.00;97017.59;4953167;28;20034;-51
2024/02/18 00:07:05;;;;;;;38.00;18.60;;;12.00;71.30;;;7.39;100.00;97023.09;4957826;28;20422;-49
2024/02/18 00:09:30;;;;;;;33.50;18.23;;;12.00;71.30;;;7.28;100.00;97032.53;4956335;28;20038;-48
2024/02/18 00:11:58;;;;;;;34.92;18.02;;;12.00;71.30;;;7.28;100.00;97027.22;4956937;28;20121;-51
2024/02/18 00:14:24;;;;;;;34.13;17.67;;;11.90;71.30;;;7.26;100.00;97028.44;4947420;28;20025;-56
2024/02/18 00:16:50;;;;;;;36.55;19.13;;;11.90;71.30;;;7.21;100.00;97031.75;4957537;28;20113;-54
2024/02/18 00:19:16;;;;;;;36.60;18.67;;;11.90;71.30;;;7.21;100.00;97037.03;4955859;28;20478;-52
2024/02/18 00:21:42;;;;;;;38.65;19.27;;;11.90;71.40;;;7.21;100.00;97031.75;4965359;28;20109;-54
2024/02/18 00:24:08;;;;;;;39.22;19.02;;;11.80;71.40;;;7.16;100.00;97027.03;4952833;28;20510;-53
2024/02/18 00:26:36;;;;;;;42.42;20.42;;;11.80;71.30;;;7.11;100.00;97031.34;4962725;28;20023;-51
2024/02/18 00:29:06;;;;;;;37.55;18.75;;;11.80;71.30;;;7.07;100.00;97032.78;4954676;28;20031;-53
2024/02/18 00:31:32;;;;;;;38.90;19.17;;;11.80;71.40;;;7.04;100.00;97019.94;4948966;28;20030;-51
2024/02/18 00:33:58;;;;;;;40.65;20.55;;;11.70;71.30;;;7.00;100.00;97030.13;4963703;28;20049;-53
2024/02/18 00:36:24;;;;;;;42.90;19.98;;;11.70;71.30;;;6.93;100.00;97032.00;4964354;28;20034;-49
2024/02/18 00:38:49;;;;;;;39.95;20.63;;;11.70;71.30;;;6.93;100.00;97032.00;4962260;28;20018;-52
2024/02/18 00:41:15;;;;;;;45.30;20.70;;;11.60;71.30;;;6.84;100.00;97038.53;4958384;28;20406;-52
2024/02/18 00:43:41;;;;;;;48.05;21.85;;;11.60;71.30;;;6.77;100.00;97040.34;4954852;28;20159;-50
2024/02/18 00:46:07;;;;;;;43.58;20.73;;;11.60;71.40;;;6.80;100.00;97035.47;4964180;28;20054;-53
2024/02/18 00:48:35;;;;;;;36.63;19.05;;;11.60;71.50;;;6.75;100.00;97035.25;4950377;28;20249;-51
2024/02/18 00:51:01;;;;;;;41.83;20.75;;;11.50;71.50;;;6.75;100.00;97037.91;4950568;28;20038;-52
2024/02/18 00:53:27;;;;;;;46.70;21.52;;;11.50;71.50;;;6.70;100.00;97029.75;4955824;28;20477;-49
2024/02/18 00:55:53;;;;;;;54.85;23.10;;;11.50;71.60;;;6.65;100.00;97042.81;4964882;28;20021;-54
2024/02/18 00:58:18;;;;;;;54.15;24.05;;;11.50;71.70;;;6.68;100.00;97039.75;4957440;28;20058;-51
2024/02/18 01:00:44;;;;;;;55.10;24.58;;;11.50;71.80;;;6.76;100.00;97038.72;4960501;28;20022;-49
2024/02/18 01:03:10;;;;;;;56.88;25.70;;;11.40;71.90;;;6.83;100.00;97028.94;4963332;28;20023;-50
2024/02/18 01:05:36;;;;;;;54.67;25.83;;;11.40;72.10;;;6.86;100.00;97026.72;4961138;28;20511;-52
2024/02/18 01:08:02;;;;;;;53.20;24.80;;;11.40;72.20;;;6.85;100.00;97016.31;4965105;28;20040;-52
2024/02/18 01:10:28;;;;;;;51.28;23.27;;;11.40;72.30;;;6.86;100.00;97023.22;4958076;28;20045;-55
2024/02/18 01:12:54;;;;;;;53.15;24.17;;;11.40;72.30;;;6.84;100.00;97019.97;4962377;28;20043;-50
2024/02/18 01:15:21;;;;;;;51.38;23.17;;;11.40;72.30;;;6.82;100.00;97025.47;4959081;28;20030;-49
2024/02/18 01:17:46;;;;;;;51.40;23.38;;;11.50;72.40;;;6.83;100.00;97018.34;4955111;28;20062;-51
2024/02/18 01:20:12;;;;;;;53.58;24.42;;;11.40;72.40;;;6.84;100.00;97018.13;4968889;28;20057;-50
2024/02/18 01:22:38;;;;;;;60.10;26.88;;;11.50;72.50;;;6.88;100.00;97021.19;4962181;28;20019;-50
2024/02/18 01:25:05;;;;;;;57.50;25.05;;;11.40;72.60;;;6.87;100.00;97017.72;4966275;28;20052;-52
2024/02/18 01:27:31;;;;;;;61.70;25.92;;;11.50;72.70;;;6.86;100.00;97009.97;4962618;28;20491;-52
2024/02/18 01:29:56;;;;;;;59.33;24.92;;;11.50;72.80;;;6.89;100.00;97021.00;4964611;28;20034;-50
2024/02/18 01:32:22;;;;;;;61.25;26.70;;;11.50;72.80;;;6.93;100.00;97016.09;4963253;28;20031;-51
2024/02/18 01:34:54;;;;;;;59.17;24.98;;;11.50;72.80;;;6.93;100.00;97018.75;4962024;28;20486;-54
2024/02/18 01:37:30;;;;;;;52.83;23.77;;;11.50;72.80;;;6.85;100.00;97003.06;4959739;28;20030;-52
2024/02/18 01:40:03;;;;;;;53.65;23.15;;;11.50;72.80;;;6.80;100.00;97013.44;4966760;28;20030;-53
2024/02/18 01:42:41;;;;;;;52.92;24.73;;;11.50;72.90;;;6.76;100.00;97001.63;4959738;28;20053;-51
2024/02/18 01:45:11;;;;;;;54.88;23.73;;;11.40;72.60;;;6.72;100.00;97001.25;4961033;28;20058;-51
2024/02/18 01:47:46;;;;;;;50.33;23.88;;;11.40;72.50;;;6.76;100.00;97001.63;4946765;28;20025;-50
2024/02/18 01:50:13;;;;;;;53.20;22.83;;;11.40;72.50;;;6.68;100.00;96998.19;4973280;28;20050;-51
2024/02/18 01:52:46;;;;;;;50.75;23.33;;;11.40;72.40;;;6.56;100.00;96994.53;4949348;28;20110;-52
2024/02/18 01:55:23;;;;;;;47.05;21.92;;;11.30;72.50;;;6.56;100.00;96996.38;4956564;28;20117;-53
2024/02/18 01:57:53;;;;;;;43.65;22.10;;;11.30;72.50;;;6.63;100.00;96992.69;4964854;28;20019;-53
2024/02/18 02:00:32;;;;;;;44.20;21.05;;;11.20;72.40;;;6.62;100.00;96991.06;4950741;28;20043;-51
2024/02/18 02:03:13;;;;;;;42.80;20.02;;;11.20;72.40;;;6.55;100.00;96990.28;4959405;28;20405;-55
2024/02/18 02:05:44;;;;;;;46.40;21.38;;;11.20;72.20;;;6.45;100.00;96981.91;4955407;28;20482;-56
2024/02/18 02:08:10;;;;;;;49.30;21.70;;;11.10;72.00;;;6.37;100.00;96977.63;4944337;28;20070;-49
2024/02/18 02:10:40;;;;;;;45.70;20.00;;;11.00;71.90;;;6.30;100.00;96978.63;4958225;28;20375;-50
2024/02/18 02:13:12;;;;;;;52.45;21.45;;;11.00;71.90;;;6.21;100.00;96980.69;4960567;28;20050;-49
2024/02/18 02:15:39;;;;;;;52.45;22.02;;;10.90;71.80;;;6.12;100.00;96980.06;4955087;28;20026;-52
2024/02/18 02:18:11;;;;;;;49.08;21.13;;;10.80;71.80;;;6.03;100.00;96975.97;4956451;28;20157;-50
2024/02/18 02:20:41;;;;;;;51.40;21.30;;;10.80;71.80;;;5.94;100.00;96969.25;4953655;28;20038;-53
2024/02/18 02:23:07;;;;;;;43.75;19.40;;;10.70;71.70;;;5.85;100.00;96976.53;4958919;28;20038;-51
2024/02/18 02:25:37;;;;;;;42.67;20.05;;;10.60;71.60;;;5.73;100.00;96971.00;4971532;28;20018;-51
2024/02/18 02:28:28;;;;;;;50.03;19.98;;;10.50;71.60;;;5.69;100.00;96975.06;4962257;28;20027;-50
2024/02/18 02:31:00;;;;;;;52.95;20.50;;;10.50;71.70;;;5.65;100.00;96976.50;4951016;28;20031;-49
2024/02/18 02:33:42;;;;;;;48.65;20.08;;;10.40;71.70;;;5.53;100.00;96975.44;4970344;28;20038;-53
2024/02/18 02:36:11;;;;;;;43.00;18.63;;;10.30;71.60;;;5.33;100.00;96973.53;4953117;28;20034;-53
2024/02/18 02:38:44;;;;;;;44.40;18.90;;;10.20;71.40;;;5.21;100.00;96969.81;4964998;28;20046;-50
2024/02/18 02:41:10;;;;;;;47.20;18.65;;;10.10;71.30;;;5.01;100.00;96966.25;4958662;28;20036;-53
2024/02/18 02:43:39;;;;;;;47.63;18.92;;;10.00;71.10;;;4.93;100.00;96966.44;4962801;28;20019;-51
2024/02/18 02:46:06;;;;;;;43.53;17.70;;;9.90;71.10;;;4.80;100.00;96965.34;4961788;28;20478;-53
2024/02/18 02:48:32;;;;;;;46.15;17.42;;;9.80;71.80;;;4.69;100.00;96952.69;4953675;28;20471;-50
2024/02/18 02:51:11;;;;;;;58.38;21.00;;;9.70;71.00;;;4.61;100.00;96955.50;4960695;28;20031;-49
2024/02/18 02:53:41;;;;;;;52.55;19.77;;;9.60;71.00;;;4.49;100.00;96955.19;4942990;28;20026;-53
2024/02/18 02:56:19;;;;;;;60.30;20.05;;;9.40;71.10;;;4.32;100.00;96951.19;4954717;28;20085;-48
2024/02/18 02:58:47;;;;;;;65.68;21.83;;;9.40;71.30;;;4.36;100.00;96948.00;4951456;28;20500;-52
2024/02/18 03:01:14;;;;;;;76.18;27.58;;;9.30;71.40;;;4.43;100.00;96947.25;4952252;28;20109;-53
2024/02/18 03:03:45;;;;;;;77.75;27.42;;;9.20;71.70;;;4.51;100.00;96937.34;4962847;28;20401;-49
2024/02/18 03:06:11;;;;;;;66.65;22.63;;;9.20;72.30;;;4.41;100.00;96944.78;4953652;28;20601;-54
2024/02/18 03:08:48;;;;;;;65.95;21.73;;;9.20;72.40;;;4.33;100.00;96940.47;4963681;28;20061;-52
2024/02/18 03:11:20;;;;;;;68.53;22.95;;;9.10;72.10;;;4.26;100.00;96941.41;4945338;28;20034;-53
2024/02/18 03:13:46;;;;;;;63.05;23.80;;;9.10;72.00;;;4.18;100.00;96940.56;4955731;28;20111;-49
2024/02/18 03:16:13;;;;;;;65.00;23.90;;;9.00;71.90;;;4.20;100.00;96942.19;4960660;28;20026;-53
2024/02/18 03:18:44;;;;;;;62.20;23.98;;;9.00;72.00;;;4.21;100.00;96941.19;4954678;28;20436;-49
2024/02/18 03:21:26;;;;;;;72.10;25.30;;;9.00;72.00;;;4.17;100.00;96940.75;4962845;28;20031;-51
2024/02/18 03:23:58;;;;;;;68.63;24.23;;;8.90;72.00;;;4.13;100.00;96932.38;4958207;28;20445;-48
2024/02/18 03:26:27;;;;;;;83.43;25.75;;;8.90;72.10;;;4.10;100.00;96937.22;4962423;28;20042;-49
2024/02/18 03:28:53;;;;;;;78.20;25.77;;;8.80;72.10;;;4.05;100.00;96942.28;4946655;28;20026;-49
2024/02/18 03:31:21;;;;;;;76.07;25.67;;;8.80;72.20;;;4.03;100.00;96941.63;4955293;28;20478;-50
2024/02/18 03:33:56;;;;;;;60.97;25.05;;;8.80;72.30;;;4.02;100.00;96946.09;4955409;28;20358;-51
2024/02/18 03:36:25;;;;;;;63.50;22.83;;;8.80;72.30;;;4.01;100.00;96943.63;4953261;28;20031;-52
2024/02/18 03:38:59;;;;;;;54.15;22.67;;;8.70;72.20;;;3.89;100.00;96941.53;4951724;28;20460;-54
2024/02/18 03:41:25;;;;;;;67.70;23.30;;;8.70;72.20;;;3.83;100.00;96947.56;4958427;28;20097;-52
2024/02/18 03:43:55;;;;;;;63.78;23.00;;;8.60;72.10;;;3.82;100.00;96953.00;4959304;28;20050;-50
2024/02/18 03:46:35;;;;;;;66.93;23.20;;;8.60;72.30;;;3.81;100.00;96949.56;4953746;28;20026;-49
2024/02/18 03:49:02;;;;;;;67.47;23.95;;;8.60;72.40;;;3.83;100.00;96949.38;4954925;28;20392;-51
2024/02/18 03:51:28;;;;;;;65.78;24.42;;;8.60;72.60;;;3.85;100.00;96950.00;4954321;28;20119;-52
2024/02/18 03:53:54;;;;;;;72.78;26.30;;;8.60;72.70;;;3.90;100.00;96944.97;4954570;28;20026;-48
2024/02/18 03:56:23;;;;;;;71.90;25.95;;;8.60;72.80;;;3.96;100.00;96940.78;4960408;28;20038;-49
2024/02/18 03:58:49;;;;;;;80.53;27.85;;;8.70;73.00;;;4.03;100.00;96947.72;4956958;28;20035;-52
2024/02/18 04:01:19;;;;;;;86.03;28.30;;;8.70;73.00;;;4.07;100.00;96941.06;4957987;28;20118;-49
2024/02/18 04:03:54;;;;;;;79.00;28.05;;;8.80;73.10;;;4.15;100.00;96945.41;4965041;28;20112;-52
2024/02/18 04:06:27;;;;;;;73.45;27.70;;;8.90;73.30;;;4.22;100.00;96940.16;4951345;28;20031;-49
2024/02/18 04:08:56;;;;;;;78.43;28.45;;;9.00;73.30;;;4.30;100.00;96940.03;4953376;28;20050;-53
2024/02/18 04:11:23;;;;;;;73.43;27.05;;;9.00;74.10;;;4.40;100.00;96940.53;4955177;28;20054;-53
2024/02/18 04:13:52;;;;;;;71.70;27.40;;;9.10;73.40;;;4.52;100.00;96949.53;4964807;28;20050;-48
2024/02/18 04:16:21;;;;;;;72.47;27.20;;;9.20;73.50;;;4.67;100.00;96944.16;4952204;28;20096;-50
2024/02/18 04:19:01;;;;;;;68.63;28.95;;;9.30;73.70;;;4.84;100.00;96940.19;4953952;28;20026;-48
2024/02/18 04:21:27;;;;;;;88.30;32.42;;;9.40;74.00;;;4.96;100.00;96942.28;4951103;28;20091;-52
2024/02/18 04:23:58;;;;;;;101.50;32.78;;;9.40;74.00;;;5.04;100.00;96940.25;4955173;28;20141;-51
2024/02/18 04:26:34;;;;;;;104.85;33.95;;;9.50;74.00;;;5.13;100.00;96946.19;4961372;28;20526;-48
2024/02/18 04:29:03;;;;;;;100.13;35.50;;;9.60;74.10;;;5.22;100.00;96939.75;4952811;28;20420;-52
2024/02/18 04:31:44;;;;;;;99.22;35.47;;;9.70;74.10;;;5.30;100.00;96939.59;4963342;28;20057;-50
2024/02/18 04:34:12;;;;;;;108.22;35.05;;;9.80;74.30;;;5.37;100.00;96933.50;4956188;28;20050;-51
2024/02/18 04:36:41;;;;;;;101.38;33.10;;;9.90;74.20;;;5.43;100.00;96936.16;4957950;28;20481;-49
2024/02/18 04:39:17;;;;;;;98.97;32.72;;;10.00;74.20;;;5.49;100.00;96935.38;4946547;28;20796;-52
2024/02/18 04:41:51;;;;;;;96.57;33.35;;;10.10;74.20;;;5.54;100.00;96938.22;4960942;28;20481;-49
2024/02/18 04:44:18;;;;;;;89.80;32.72;;;10.20;74.10;;;5.60;100.00;96946.38;4957197;28;20038;-51
2024/02/18 04:46:54;;;;;;;89.25;33.08;;;10.20;74.10;;;5.66;100.00;96956.16;4956188;28;20685;-49
2024/02/18 04:49:23;;;;;;;80.13;29.70;;;10.30;74.10;;;5.70;100.00;96954.72;4955910;28;20051;-51
2024/02/18 04:51:58;;;;;;;75.32;29.27;;;10.30;73.90;;;5.71;100.00;96951.09;4956598;28;20045;-51
2024/02/18 04:54:35;;;;;;;83.28;28.15;;;10.40;73.90;;;5.68;100.00;96951.47;4955618;28;20117;-49
2024/02/18 04:57:05;;;;;;;108.70;29.35;;;10.40;73.80;;;5.69;100.00;96951.28;4954835;28;20031;-48
2024/02/18 04:59:34;;;;;;;155.60;31.20;;;10.40;73.60;;;5.72;100.00;96948.22;4954066;28;20026;-54
2024/02/18 05:02:03;;;;;;;97.45;27.30;;;10.50;73.70;;;5.74;100.00;96943.56;4947595;28;20074;-49
2024/02/18 05:04:40;;;;;;;121.85;29.58;;;10.50;73.60;;;5.67;100.00;96937.47;4960150;28;20056;-49
2024/02/18 05:07:08;;;;;;;98.15;28.70;;;10.50;73.60;;;5.67;100.00;96942.75;4959736;28;20022;-49
2024/02/18 05:09:41;;;;;;;75.95;29.85;;;10.50;73.50;;;5.72;100.00;96945.59;4957785;28;20047;-51
2024/02/18 05:12:11;;;;;;;84.20;29.73;;;10.50;73.60;;;5.74;100.00;96940.91;4956258;28;20177;-49
2024/02/18 05:14:37;;;;;;;77.93;28.42;;;10.50;73.60;;;5.72;100.00;96944.78;4960140;28;20128;-50
2024/02/18 05:17:03;;;;;;;80.85;29.17;;;10.50;73.60;;;5.75;100.00;96949.66;4959238;28;20076;-52
2024/02/18 05:19:29;;;;;;;76.38;28.70;;;10.50;73.60;;;5.79;100.00;96946.41;4963989;28;20115;-50
2024/02/18 05:21:55;;;;;;;78.22;28.95;;;10.50;73.60;;;5.73;100.00;96944.56;4963683;28;20109;-50
2024/02/18 05:24:21;;;;;;;75.72;28.25;;;10.60;73.60;;;5.74;100.00;96942.75;4965252;28;20552;-54
2024/02/18 05:26:47;;;;;;;78.72;29.88;;;10.60;73.60;;;5.83;100.00;96952.13;4961662;28;20038;-51
2024/02/18 05:29:13;;;;;;;76.28;29.63;;;10.60;73.70;;;5.88;100.00;96949.69;4957077;28;20462;-52
2024/02/18 05:31:38;;;;;;;72.57;28.55;;;10.60;73.60;;;5.90;100.00;96942.38;4963832;28;20527;-50
2024/02/18 05:34:06;;;;;;;73.50;28.95;;;10.70;73.70;;;5.91;100.00;96948.47;4964227;28;20037;-54
2024/02/18 05:36:32;;;;;;;78.47;30.10;;;10.70;73.70;;;5.91;100.00;96938.69;4958430;28;20034;-51
2024/02/18 05:38:58;;;;;;;79.32;29.58;;;10.70;73.70;;;5.93;100.00;96938.53;4963628;28;20061;-52
2024/02/18 05:41:24;;;;;;;77.18;29.80;;;10.70;73.60;;;5.92;100.00;96947.44;4957370;28;20025;-50
2024/02/18 05:43:50;;;;;;;69.45;29.15;;;10.70;73.60;;;5.92;100.00;96947.44;4964665;28;20489;-51
2024/02/18 05:46:16;;;;;;;75.53;28.33;;;10.70;73.60;;;5.93;100.00;96943.84;4955806;28;20109;-50
2024/02/18 05:48:43;;;;;;;72.20;28.63;;;10.80;73.60;;;5.96;100.00;96949.53;4947689;28;20246;-50
2024/02/18 05:51:09;;;;;;;64.40;27.02;;;10.80;73.60;;;5.96;100.00;96946.06;4951730;28;20070;-52
2024/02/18 05:53:36;;;;;;;64.00;27.30;;;10.80;73.60;;;5.98;100.00;96946.66;4948339;28;20023;-52
2024/02/18 05:56:02;;;;;;;67.97;28.55;;;10.80;73.50;;;5.98;100.00;96947.47;4947328;28;20045;-50
2024/02/18 05:58:28;;;;;;;92.35;33.10;;;10.90;73.50;;;5.95;100.00;96944.44;4945964;28;20045;-53
2024/02/18 06:00:53;;;;;;;115.90;32.72;;;10.90;73.50;;;5.98;100.00;96942.19;4947967;28;20507;-51
2024/02/18 06:03:19;;;;;;;98.97;32.78;;;10.90;73.40;;;5.99;100.00;96940.38;4944920;28;20181;-50
2024/02/18 06:05:45;;;;;;;101.70;32.65;;;10.90;73.40;;;6.00;100.00;96942.81;4950007;28;20051;-56
2024/02/18 06:08:11;;;;;;;94.78;32.20;;;10.90;73.40;;;6.07;100.00;96947.28;4944567;28;20033;-54
2024/02/18 06:10:37;;;;;;;82.80;30.08;;;10.90;73.40;;;6.08;100.00;96939.16;4947281;28;20062;-53
2024/02/18 06:13:03;;;;;;;88.07;30.80;;;10.90;73.40;;;6.11;100.00;96940.56;4941988;28;20043;-50
2024/02/18 06:15:30;;;;;;;90.10;32.22;;;10.90;73.40;;;6.14;100.00;96941.00;4948361;28;20393;-54
2024/02/18 06:17:57;;;;;;;99.20;32.88;;;10.90;73.40;;;6.16;100.00;96938.13;4948972;28;20034;-52
2024/02/18 06:20:26;;;;;;;118.07;32.13;;;11.00;73.40;;;6.16;100.00;96940.78;4944564;28;20031;-54
2024/02/18 06:22:52;;;;;;;98.20;32.30;;;11.00;73.40;;;6.17;100.00;96942.41;4950645;28;20516;-53
2024/02/18 06:25:18;;;;;;;99.57;34.33;;;11.00;73.30;;;6.19;100.00;96937.72;4944244;28;20038;-51
2024/02/18 06:27:44;;;;;;;94.80;33.03;;;11.00;73.30;;;6.19;100.00;96938.53;4944718;28;20061;-51
2024/02/18 06:30:11;;;;;;;93.28;32.65;;;11.10;73.30;;;6.19;100.00;96935.91;4937654;28;20031;-51
2024/02/18 06:32:37;;;;;;;96.40;31.73;;;11.00;73.30;;;6.21;100.00;96939.16;4944636;28;20022;-53
2024/02/18 06:35:04;;;;;;;86.28;32.58;;;11.10;73.30;;;6.23;100.00;96942.41;4946392;28;20034;-51
2024/02/18 06:37:30;;;;;;;77.82;31.42;;;11.00;73.30;;;6.25;100.00;96942.22;4944980;28;20361;-53
2024/02/18 06:39:56;;;;;;;82.13;32.83;;;11.10;73.40;;;6.24;100.00;96944.06;4941185;28;20038;-51
2024/02/18 06:42:22;;;;;;;79.07;32.25;;;11.10;73.30;;;6.29;100.00;96943.44;4945404;28;20029;-51
2024/02/18 06:44:48;;;;;;;78.68;32.10;;;11.10;73.30;;;6.29;100.00;96940.78;4945027;28;20031;-52
2024/02/18 06:47:14;;;;;;;77.47;32.28;;;11.10;73.30;;;6.30;100.00;96946.88;4943167;28;20393;-52
2024/02/18 06:49:40;;;;;;;87.22;32.50;;;11.20;73.30;;;6.31;100.00;96946.69;4954499;28;20379;-51
2024/02/18 06:52:06;;;;;;;81.20;33.38;;;11.20;73.30;;;6.35;100.00;96945.25;4941217;28;20533;-52
2024/02/18 06:54:32;;;;;;;83.63;35.17;;;11.20;73.30;;;6.37;100.00;96945.88;4943775;28;20034;-51
2024/02/18 06:56:58;;;;;;;85.15;35.55;;;11.30;73.30;;;6.41;100.00;96946.28;4943748;28;20029;-54
2024/02/18 06:59:24;;;;;;;94.95;36.42;;;11.30;73.30;;;6.44;100.00;96941.38;4948456;28;20112;-51
2024/02/18 07:01:49;;;;;;;78.07;33.55;;;11.30;73.30;;;6.50;100.00;96945.06;4949141;28;20057;-50
2024/02/18 07:04:15;;;;;;;84.72;34.38;;;11.40;73.30;;;6.54;100.00;96950.75;4954652;28;20030;-53
2024/02/18 07:06:41;;;;;;;86.10;36.08;;;11.40;73.30;;;6.57;100.00;96945.03;4957825;28;20033;-51
2024/02/18 07:09:07;;;;;;;77.95;32.95;;;11.50;73.30;;;6.60;100.00;96944.63;4958347;28;20018;-55
2024/02/18 07:11:33;;;;;;;83.53;34.63;;;11.50;73.20;;;6.63;100.00;96941.56;4958836;28;20420;-51
2024/02/18 07:14:00;;;;;;;80.13;34.08;;;11.60;73.20;;;6.60;100.00;96934.84;4952264;28;20074;-50
2024/02/18 07:16:26;;;;;;;73.57;32.42;;;11.70;73.10;;;6.66;100.00;96933.22;4960311;28;20471;-50
2024/02/18 07:18:52;;;;;;;72.13;33.88;;;11.70;73.00;;;6.70;100.00;96929.13;4953107;28;20321;-52
2024/02/18 07:21:18;;;;;;;68.18;32.83;;;11.70;73.70;;;6.71;100.00;96928.13;4954861;28;20533;-51
2024/02/18 07:23:47;;;;;;;70.88;32.42;;;11.80;73.00;;;6.63;100.00;96926.50;4959303;28;20026;-51
2024/02/18 07:26:14;;;;;;;73.78;32.67;;;11.80;72.90;;;6.65;100.00;96929.75;4950658;28;20050;-51
2024/02/18 07:28:41;;;;;;;65.88;30.42;;;11.80;72.90;;;6.61;100.00;96931.19;4956776;28;20378;-50
2024/02/18 07:31:08;;;;;;;63.40;29.58;;;11.80;72.90;;;6.65;100.00;96924.47;4954598;28;20026;-50
2024/02/18 07:33:35;;;;;;;62.22;31.02;;;11.80;72.90;;;6.77;100.00;96929.09;4949324;28;20169;-51
2024/02/18 07:36:02;;;;;;;61.63;29.40;;;11.80;73.00;;;6.83;100.00;96936.22;4955957;28;20125;-52
2024/02/18 07:38:27;;;;;;;62.00;28.15;;;11.80;73.00;;;6.82;100.00;96930.13;4960123;28;20022;-56
2024/02/18 07:40:54;;;;;;;56.92;26.02;;;11.90;73.00;;;6.87;100.00;96932.97;4954656;28;20030;-53
2024/02/18 07:43:21;;;;;;;57.10;26.23;;;11.90;73.00;;;6.92;100.00;96932.31;4953768;28;20026;-51
2024/02/18 07:45:47;;;;;;;54.08;26.52;;;11.90;73.00;;;6.94;100.00;96935.59;4957730;28;20166;-52
2024/02/18 07:48:14;;;;;;;53.83;25.92;;;11.90;72.90;;;6.93;100.00;96936.63;4951156;28;20111;-53
2024/02/18 07:50:41;;;;;;;51.92;26.50;;;12.00;72.90;;;6.91;100.00;96933.38;4959849;28;20113;-56
2024/02/18 07:53:07;;;;;;;49.33;24.67;;;12.00;72.90;;;6.96;100.00;96930.91;4951458;28;20050;-53
2024/02/18 07:55:34;;;;;;;51.03;25.63;;;12.00;72.80;;;7.01;100.00;96932.91;4947866;28;20473;-53
2024/02/18 07:58:01;;;;;;;47.00;24.70;;;12.10;72.90;;;7.04;100.00;96935.16;4962837;28;20034;-55
2024/02/18 08:00:27;;;;;;;52.28;25.80;;;12.10;72.80;;;7.02;100.00;96935.38;4944961;28;20494;-54
2024/02/18 08:02:53;;;;;;;55.28;27.10;;;12.20;72.70;;;7.08;100.00;96926.59;4952278;28;20022;-55
2024/02/18 08:05:19;;;;;;;51.97;25.42;;;12.30;72.70;;;7.15;100.00;96919.44;4946608;28;20022;-52
2024/02/18 08:07:45;;;;;;;50.90;26.30;;;12.40;72.60;;;7.23;100.00;96926.31;4956067;28;20515;-52
2024/02/18 08:10:11;;;;;;;50.40;27.02;;;12.50;72.60;;;7.30;100.00;96921.81;4949895;28;20090;-52
2024/02/18 08:12:37;;;;;;;44.08;26.40;;;12.60;72.50;;;7.39;100.00;96917.88;4958853;28;20665;-53
2024/02/18 08:15:04;;;;;;;40.33;23.70;;;12.70;72.40;;;7.47;100.00;96916.84;4958304;28;20115;-52
2024/02/18 08:17:30;;;;;;;41.03;24.20;;;12.80;72.30;;;7.54;100.00;96912.28;4956428;28;20109;-51
2024/02/18 08:19:56;;;;;;;40.50;22.45;;;12.90;72.20;;;7.62;100.00;96911.25;4962375;28;20458;-51
2024/02/18 08:22:23;;;;;;;38.03;22.50;;;13.00;72.00;;;7.69;100.00;96906.72;4961565;28;20030;-52
2024/02/18 08:24:49;;;;;;;31.77;21.13;;;13.20;71.90;;;7.81;100.00;96915.59;4960507;28;20080;-52
2024/02/18 08:27:15;;;;;;;34.63;20.92;;;13.30;71.60;;;7.84;100.00;96909.88;4958948;28;20030;-52
2024/02/18 08:29:44;;;;;;;29.42;19.15;;;13.40;71.50;;;7.91;100.00;96906.38;4957214;28;20040;-52
2024/02/18 08:32:10;;;;;;;26.42;17.70;;;13.50;71.20;;;8.01;100.00;96899.53;4960483;28;20031;-51
2024/02/18 08:34:36;;;;;;;23.13;15.95;;;13.60;71.90;;;8.10;100.00;96906.22;4961483;28;20575;-51
2024/02/18 08:37:03;;;;;;;21.67;15.57;;;13.70;70.80;;;8.18;100.00;96902.50;4956367;28;20033;-51
2024/02/18 08:39:29;;;;;;;22.65;15.90;;;13.80;70.60;;;8.29;100.00;96900.94;4965439;28;20126;-51
2024/02/18 08:41:55;;;;;;;23.00;16.88;;;13.80;70.30;;;8.35;100.00;96906.19;4954683;28;20114;-51
2024/02/18 08:44:21;;;;;;;24.25;15.55;;;13.90;70.20;;;8.33;100.00;96900.28;4957417;28;20030;-54
2024/02/18 08:46:49;;;;;;;25.08;16.55;;;13.90;70.00;;;8.44;100.00;96906.78;4960322;28;20885;-52
2024/02/18 08:49:15;;;;;;;23.55;15.82;;;14.00;69.80;;;8.49;100.00;96898.13;4947983;28;20023;-51
2024/02/18 08:51:41;;;;;;;22.40;16.30;;;14.10;69.60;;;8.58;100.00;96892.31;4960559;28;20035;-53
2024/02/18 08:54:08;;;;;;;19.40;14.20;;;14.20;69.40;;;8.62;100.00;96891.88;4961548;28;20485;-52
2024/02/18 08:56:35;;;;;;;21.70;15.38;;;14.20;69.20;;;8.65;100.00;96892.28;4966484;28;20060;-51
2024/02/18 08:59:01;;;;;;;20.83;15.15;;;14.30;69.00;;;8.69;100.00;96890.00;4953948;28;20031;-51
2024/02/18 09:01:27;;;;;;;19.35;14.40;;;14.40;68.90;;;8.77;100.00;96887.03;4957255;28;20455;-54
2024/02/18 09:03:53;;;;;;;20.55;14.60;;;14.50;68.60;;;8.83;100.00;96891.47;4955449;28;20077;-53
2024/02/18 09:06:19;;;;;;;19.63;14.35;;;14.50;68.40;;;8.88;100.00;96888.97;4955324;28;20039;-52
2024/02/18 09:08:45;;;;;;;20.25;14.50;;;14.60;68.30;;;8.96;100.00;96899.31;4952693;28;20030;-52
2024/02/18 09:11:11;;;;;;;22.73;15.65;;;14.60;68.10;;;9.01;100.00;96895.97;4952609;28;20430;-51
2024/02/18 09:13:37;;;;;;;23.30;15.65;;;14.70;68.00;;;9.10;100.00;96889.31;4959146;28;20049;-54
2024/02/18 09:16:03;;;;;;;23.38;16.08;;;14.80;67.90;;;9.15;100.00;96896.59;4959935;28;20027;-52
2024/02/18 09:18:29;;;;;;;21.17;15.25;;;14.80;67.60;;;9.26;100.00;96886.03;4961302;28;20030;-51
2024/02/18 09:20:55;;;;;;;21.75;15.85;;;14.90;67.50;;;9.38;100.00;96888.75;4955712;28;20029;-51
2024/02/18 09:23:22;;;;;;;22.75;15.80;;;15.00;67.50;;;9.44;100.00;96887.88;4955894;28;20105;-51
2024/02/18 09:25:47;;;;;;;23.80;15.73;;;15.20;67.30;;;9.54;100.00;96892.63;4953746;28;20502;-51
2024/02/18 09:28:15;;;;;;;23.27;15.40;;;15.40;66.90;;;9.65;100.00;96897.19;4948844;28;20134;-53
2024/02/18 09:30:41;;;;;;;29.27;16.75;;;15.70;66.50;;;9.72;100.00;96895.25;4948305;28;20062;-52
2024/02/18 09:33:07;;;;;;;22.92;16.05;;;15.90;66.10;;;9.90;100.00;96897.03;4954662;28;20050;-52
2024/02/18 09:35:34;;;;;;;20.85;14.73;;;16.10;65.60;;;10.02;100.00;96893.56;4948486;28;20408;-51
2024/02/18 09:38:00;;;;;;;23.23;16.20;;;16.10;65.30;;;9.92;100.00;96894.94;4958585;28;20035;-51
2024/02/18 09:40:26;;;;;;;22.42;15.50;;;16.20;65.00;;;10.02;100.00;96885.59;4960403;28;20035;-52
2024/02/18 09:42:54;;;;;;;24.58;16.27;;;16.20;64.60;;;10.13;100.00;96882.16;4975931;28;20010;-52
2024/02/18 09:45:29;;;;;;;22.92;15.77;;;16.30;64.30;;;10.18;100.00;96880.41;4960389;28;20026;-51
2024/02/18 09:47:57;;;;;;;27.33;17.83;;;16.40;64.20;;;10.32;100.00;96883.69;4953242;28;20031;-51
2024/02/18 09:50:23;;;;;;;22.45;15.95;;;16.50;64.00;;;10.39;100.00;96880.91;4948233;28;20046;-53
2024/02/18 09:52:51;;;;;;;24.65;16.63;;;16.50;63.90;;;10.54;100.00;96883.13;4945503;28;20393;-51
2024/02/18 09:55:17;;;;;;;26.30;18.02;;;16.60;63.80;;;10.56;100.00;96886.34;4945797;28;20026;-51
2024/02/18 09:57:43;;;;;;;24.80;17.42;;;16.70;63.80;;;10.64;100.00;96883.34;4947082;28;20027;-50
2024/02/18 10:00:10;;;;;;;25.42;17.65;;;16.70;63.50;;;10.57;100.00;96880.81;4947802;28;20388;-52
2024/02/18 10:02:37;;;;;;;28.45;18.92;;;16.70;63.30;;;10.55;100.00;96874.88;4945130;28;20061;-51
2024/02/18 10:05:04;;;;;;;26.75;18.73;;;16.70;63.10;;;10.65;100.00;96869.78;4941882;28;20100;-51
2024/02/18 10:07:33;;;;;;;26.02;18.30;;;16.80;62.90;;;10.73;100.00;96870.47;4953238;28;20018;-53
2024/02/18 10:10:04;;;;;;;25.90;19.15;;;16.90;62.60;;;10.84;100.00;96866.97;4953481;28;20061;-54
2024/02/18 10:12:32;;;;;;;30.33;19.10;;;17.10;62.50;;;11.03;100.00;96862.28;4952286;28;20038;-51